createdAt,value
2022-08-31T00:01:05.080Z,13.82
2022-08-31T00:03:50.423Z,13.78
2022-08-31T00:06:18.012Z,13.79
2022-08-31T00:08:45.568Z,13.78
2022-08-31T00:11:14.391Z,13.76
2022-08-31T00:13:42.479Z,13.73
2022-08-31T00:16:12.686Z,13.71
2022-08-31T00:18:40.565Z,13.69
2022-08-31T00:21:08.162Z,13.67
2022-08-31T00:23:35.728Z,13.62
2022-08-31T00:26:03.309Z,13.58
2022-08-31T00:28:30.972Z,13.51
2022-08-31T00:30:58.524Z,13.44
2022-08-31T00:33:27.425Z,13.38
2022-08-31T00:35:55.010Z,13.34
2022-08-31T00:38:22.756Z,13.31
2022-08-31T00:40:50.386Z,13.29
2022-08-31T00:43:35.614Z,13.40
2022-08-31T00:46:03.300Z,13.38
2022-08-31T00:48:32.563Z,13.40
2022-08-31T00:51:00.843Z,13.41
2022-08-31T00:53:29.192Z,13.45
2022-08-31T00:55:56.844Z,13.47
2022-08-31T00:58:24.798Z,13.50
2022-08-31T01:00:52.887Z,13.51
2022-08-31T01:03:21.518Z,13.52
2022-08-31T01:05:51.454Z,13.53
2022-08-31T01:08:19.088Z,13.55
2022-08-31T01:10:54.598Z,13.56
2022-08-31T01:13:23.084Z,13.59
2022-08-31T01:15:58.788Z,13.61
2022-08-31T01:18:26.433Z,13.62
2022-08-31T01:21:05.202Z,13.61
2022-08-31T01:23:38.696Z,13.61
2022-08-31T01:26:09.064Z,13.68
2022-08-31T01:28:36.902Z,13.74
2022-08-31T01:31:07.497Z,13.81
2022-08-31T01:33:37.725Z,13.85
2022-08-31T01:36:06.856Z,13.89
2022-08-31T01:38:36.422Z,13.94
2022-08-31T01:41:05.377Z,13.93
2022-08-31T01:43:34.487Z,13.93
2022-08-31T01:46:02.903Z,13.95
2022-08-31T01:48:33.121Z,13.95
2022-08-31T01:51:02.327Z,13.98
2022-08-31T01:53:29.941Z,13.98
2022-08-31T01:55:58.954Z,14.01
2022-08-31T01:58:26.700Z,14.03
2022-08-31T02:00:54.405Z,14.01
2022-08-31T02:03:22.010Z,14.03
2022-08-31T02:05:49.656Z,14.04
2022-08-31T02:08:17.233Z,14.08
2022-08-31T02:10:45.780Z,14.14
2022-08-31T02:13:14.781Z,14.13
2022-08-31T02:15:42.395Z,14.14
2022-08-31T02:18:09.945Z,14.11
2022-08-31T02:20:39.758Z,14.11
2022-08-31T02:23:07.679Z,14.11
2022-08-31T02:25:35.512Z,14.13
2022-08-31T02:28:03.429Z,14.15
2022-08-31T02:30:32.574Z,14.21
2022-08-31T02:33:00.136Z,14.27
2022-08-31T02:35:27.674Z,14.33
2022-08-31T02:37:55.260Z,14.34
2022-08-31T02:40:23.182Z,14.38
2022-08-31T02:42:53.121Z,14.40
2022-08-31T02:45:21.988Z,14.38
2022-08-31T02:47:51.282Z,14.39
2022-08-31T02:50:19.093Z,14.43
2022-08-31T02:52:46.845Z,14.42
2022-08-31T02:55:14.673Z,14.38
2022-08-31T02:57:42.241Z,14.38
2022-08-31T03:00:11.661Z,14.40
2022-08-31T03:02:41.051Z,14.38
2022-08-31T03:05:11.159Z,14.35
2022-08-31T03:07:39.256Z,14.36
2022-08-31T03:10:10.361Z,14.33
2022-08-31T03:12:39.041Z,14.29
2022-08-31T03:15:07.697Z,14.25
2022-08-31T03:17:35.514Z,14.22
2022-08-31T03:20:05.055Z,14.21
2022-08-31T03:22:35.044Z,14.10
2022-08-31T03:25:04.800Z,14.07
2022-08-31T03:27:32.416Z,14.01
2022-08-31T03:30:00.183Z,13.94
2022-08-31T03:32:28.327Z,13.87
2022-08-31T03:34:57.439Z,13.80
2022-08-31T03:37:25.497Z,13.77
2022-08-31T03:39:54.440Z,13.71
2022-08-31T03:42:22.413Z,13.68
2022-08-31T03:44:50.037Z,13.61
2022-08-31T03:47:17.744Z,13.55
2022-08-31T03:49:46.029Z,13.48
2022-08-31T03:52:13.856Z,13.41
2022-08-31T03:54:41.576Z,13.34
2022-08-31T03:57:10.715Z,13.27
2022-08-31T03:59:38.325Z,13.23
2022-08-31T04:02:05.890Z,13.18
2022-08-31T04:04:33.642Z,13.16
2022-08-31T04:07:01.231Z,13.11
2022-08-31T04:09:29.204Z,13.09
2022-08-31T04:11:56.820Z,13.06
2022-08-31T04:14:25.741Z,13.03
2022-08-31T04:16:53.313Z,13.00
2022-08-31T04:19:20.969Z,12.97
2022-08-31T04:21:50.037Z,13.02
2022-08-31T04:24:17.587Z,13.05
2022-08-31T04:26:45.149Z,13.08
2022-08-31T04:29:13.750Z,13.08
2022-08-31T04:31:43.214Z,13.09
2022-08-31T04:34:10.806Z,13.11
2022-08-31T04:36:38.634Z,13.13
2022-08-31T04:39:07.853Z,13.15
2022-08-31T04:41:37.987Z,13.17
2022-08-31T04:44:05.801Z,13.21
2022-08-31T04:46:36.468Z,13.27
2022-08-31T04:49:07.852Z,13.32
2022-08-31T04:51:35.925Z,13.36
2022-08-31T04:54:05.873Z,13.39
2022-08-31T04:56:36.052Z,13.47
2022-08-31T04:59:06.255Z,13.53
2022-08-31T05:01:42.707Z,13.63
2022-08-31T05:04:14.118Z,13.72
2022-08-31T05:06:44.361Z,14.39
2022-08-31T05:09:13.977Z,15.34
2022-08-31T05:11:41.614Z,16.17
2022-08-31T05:14:10.564Z,17.17
2022-08-31T05:16:38.976Z,18.05
2022-08-31T05:19:07.681Z,18.93
2022-08-31T05:21:38.781Z,19.65
2022-08-31T05:24:09.350Z,20.28
2022-08-31T05:26:42.086Z,20.73
2022-08-31T05:29:10.429Z,21.29
2022-08-31T05:31:38.805Z,21.73
2022-08-31T05:34:06.977Z,22.34
2022-08-31T05:36:36.344Z,22.77
2022-08-31T05:39:04.024Z,23.30
2022-08-31T05:41:32.325Z,23.82
2022-08-31T05:43:59.881Z,24.21
2022-08-31T05:46:27.454Z,24.57
2022-08-31T05:48:55.073Z,24.71
2022-08-31T05:51:22.673Z,24.41
2022-08-31T05:53:52.333Z,23.57
2022-08-31T05:56:23.391Z,23.47
2022-08-31T05:58:51.326Z,23.71
2022-08-31T06:01:21.330Z,24.12
2022-08-31T06:03:49.411Z,24.43
2022-08-31T06:06:17.989Z,24.79
2022-08-31T06:08:46.217Z,25.01
2022-08-31T06:11:19.264Z,25.33
2022-08-31T06:13:47.921Z,25.58
2022-08-31T06:16:17.518Z,25.72
2022-08-31T06:18:50.611Z,26.12
2022-08-31T06:21:20.987Z,26.23
2022-08-31T06:23:50.591Z,25.92
2022-08-31T06:26:22.994Z,25.44
2022-08-31T06:28:52.371Z,25.36
2022-08-31T06:31:24.391Z,25.18
2022-08-31T06:33:52.859Z,25.13
2022-08-31T06:36:22.409Z,24.84
2022-08-31T06:38:50.693Z,24.83
2022-08-31T06:41:22.220Z,25.40
2022-08-31T06:43:50.118Z,25.49
2022-08-31T06:46:19.159Z,25.98
2022-08-31T06:48:48.125Z,26.21
2022-08-31T06:51:16.027Z,26.05
2022-08-31T06:53:43.780Z,26.54
2022-08-31T06:56:20.137Z,26.90
2022-08-31T06:58:53.874Z,26.81
2022-08-31T07:01:35.816Z,26.74
2022-08-31T07:04:06.325Z,26.59
2022-08-31T07:06:37.906Z,26.46
2022-08-31T07:09:08.145Z,26.11
2022-08-31T07:11:43.540Z,26.44
2022-08-31T07:14:15.284Z,26.62
2022-08-31T07:16:43.949Z,26.68
2022-08-31T07:19:12.687Z,26.26
2022-08-31T07:21:42.937Z,25.80
2022-08-31T07:24:11.493Z,25.36
2022-08-31T07:26:42.347Z,24.68
2022-08-31T07:29:11.504Z,24.28
2022-08-31T07:31:44.581Z,23.93
2022-08-31T07:34:14.267Z,23.15
2022-08-31T07:37:00.318Z,22.99
2022-08-31T07:39:46.653Z,22.65
2022-08-31T07:42:16.485Z,22.28
2022-08-31T07:44:52.932Z,21.77
2022-08-31T07:47:28.253Z,21.88
2022-08-31T07:50:00.946Z,21.60
2022-08-31T07:52:31.025Z,21.90
2022-08-31T07:55:04.862Z,21.82
2022-08-31T07:57:36.179Z,21.78
2022-08-31T08:00:08.666Z,22.21
2022-08-31T08:02:39.120Z,22.24
2022-08-31T08:05:08.047Z,22.05
2022-08-31T08:07:36.813Z,22.30
2022-08-31T08:10:07.288Z,22.66
2022-08-31T08:12:36.170Z,22.56
2022-08-31T08:15:06.842Z,22.50
2022-08-31T08:17:34.714Z,22.70
2022-08-31T08:20:04.789Z,22.69
2022-08-31T08:22:51.339Z,22.41
2022-08-31T08:25:25.774Z,22.66
2022-08-31T08:27:55.157Z,22.63
2022-08-31T08:30:23.226Z,22.69
2022-08-31T08:32:50.838Z,22.33
2022-08-31T08:35:20.269Z,21.89
2022-08-31T08:37:58.520Z,22.04
2022-08-31T08:40:37.187Z,22.27
2022-08-31T08:43:06.054Z,22.70
2022-08-31T08:45:34.862Z,22.20
2022-08-31T08:48:12.638Z,22.68
2022-08-31T08:50:42.769Z,22.69
2022-08-31T08:53:15.189Z,22.86
2022-08-31T08:55:43.381Z,22.72
2022-08-31T08:58:13.589Z,21.96
2022-08-31T09:00:46.558Z,22.33
2022-08-31T09:03:24.261Z,21.99
2022-08-31T09:06:01.893Z,21.63
2022-08-31T09:09:08.643Z,21.49
2022-08-31T09:11:49.404Z,21.57
2022-08-31T09:14:32.477Z,21.79
2022-08-31T09:17:10.161Z,21.75
2022-08-31T09:19:54.583Z,21.73
2022-08-31T09:22:23.539Z,21.52
2022-08-31T09:24:52.922Z,21.70
2022-08-31T09:27:40.680Z,22.22
2022-08-31T09:30:09.525Z,22.34
2022-08-31T09:32:37.701Z,22.20
2022-08-31T09:35:09.333Z,22.08
2022-08-31T09:37:46.140Z,22.33
2022-08-31T09:40:19.532Z,22.38
2022-08-31T09:43:04.030Z,22.56
2022-08-31T09:45:37.795Z,22.12
2022-08-31T09:48:09.883Z,22.13
2022-08-31T09:50:44.961Z,22.13
2022-08-31T09:53:35.033Z,22.45
2022-08-31T09:56:15.389Z,21.74
2022-08-31T09:58:47.840Z,21.69
2022-08-31T10:01:20.917Z,22.13
2022-08-31T10:03:49.880Z,22.15
2022-08-31T10:06:43.973Z,22.01
2022-08-31T10:09:26.060Z,22.24
2022-08-31T10:11:57.520Z,21.96
2022-08-31T10:14:33.241Z,21.91
2022-08-31T10:17:05.621Z,22.01
2022-08-31T10:19:44.252Z,21.67
2022-08-31T10:22:25.408Z,21.79
2022-08-31T10:25:06.429Z,21.73
2022-08-31T10:27:40.353Z,21.79
2022-08-31T10:30:13.310Z,22.09
2022-08-31T10:32:49.789Z,22.38
2022-08-31T10:35:23.041Z,21.95
2022-08-31T10:37:59.453Z,21.90
2022-08-31T10:40:33.159Z,21.80
2022-08-31T10:43:11.200Z,21.66
2022-08-31T10:45:43.613Z,21.79
2022-08-31T10:48:12.954Z,21.94
2022-08-31T10:50:47.464Z,22.53
2022-08-31T10:53:32.545Z,22.81
2022-08-31T10:56:14.309Z,23.20
2022-08-31T10:58:55.073Z,23.49
2022-08-31T11:01:28.898Z,23.49
2022-08-31T11:04:44.610Z,23.85
2022-08-31T11:07:37.256Z,23.94
2022-08-31T11:10:19.850Z,23.86
2022-08-31T11:12:57.706Z,23.91
2022-08-31T11:15:51.872Z,23.64
2022-08-31T11:18:53.437Z,23.35
2022-08-31T11:21:38.793Z,23.45
2022-08-31T11:24:27.509Z,23.76
2022-08-31T11:27:06.360Z,23.90
2022-08-31T11:29:43.728Z,24.05
2022-08-31T11:32:20.377Z,24.14
2022-08-31T11:34:53.393Z,24.00
2022-08-31T11:38:00.510Z,23.36
2022-08-31T11:41:03.650Z,23.23
2022-08-31T11:43:52.237Z,23.01
2022-08-31T11:46:59.769Z,23.63
2022-08-31T11:49:43.729Z,23.53
2022-08-31T11:52:43.101Z,24.11
2022-08-31T11:55:46.610Z,24.64
2022-08-31T11:58:26.837Z,24.82
2022-08-31T12:00:59.560Z,24.56
2022-08-31T12:03:52.518Z,24.41
2022-08-31T12:07:11.032Z,24.48
2022-08-31T12:09:55.656Z,24.62
2022-08-31T12:12:37.830Z,24.33
2022-08-31T12:15:17.426Z,24.25
2022-08-31T12:17:58.503Z,24.15
2022-08-31T12:20:32.002Z,24.26
2022-08-31T12:23:37.563Z,24.55
2022-08-31T12:26:20.828Z,24.52
2022-08-31T12:29:11.001Z,24.63
2022-08-31T12:31:41.453Z,24.83
2022-08-31T12:34:13.864Z,24.84
2022-08-31T12:36:41.513Z,24.78
2022-08-31T12:39:11.436Z,24.73
2022-08-31T12:41:43.696Z,24.68
2022-08-31T12:44:14.056Z,24.44
2022-08-31T12:46:58.660Z,24.45
2022-08-31T12:49:50.351Z,24.19
2022-08-31T12:52:34.125Z,24.56
2022-08-31T12:55:22.090Z,24.70
2022-08-31T12:58:00.588Z,24.81
2022-08-31T13:00:30.665Z,24.70
2022-08-31T13:03:01.373Z,24.68
2022-08-31T13:05:30.905Z,24.36
2022-08-31T13:07:59.234Z,24.15
2022-08-31T13:10:31.152Z,24.15
2022-08-31T13:13:02.797Z,24.24
2022-08-31T13:15:38.583Z,24.13
2022-08-31T13:18:12.072Z,24.12
2022-08-31T13:20:43.301Z,24.19
2022-08-31T13:23:14.690Z,24.20
2022-08-31T13:25:42.876Z,24.20
2022-08-31T13:28:30.027Z,24.30
2022-08-31T13:31:03.259Z,24.40
2022-08-31T13:33:33.180Z,24.20
2022-08-31T13:36:04.971Z,24.04
2022-08-31T13:38:50.744Z,23.93
2022-08-31T13:41:27.314Z,23.85
2022-08-31T13:44:02.665Z,23.93
2022-08-31T13:46:43.000Z,23.86
2022-08-31T13:49:25.232Z,23.71
2022-08-31T13:51:53.041Z,23.76
2022-08-31T13:54:28.107Z,23.97
2022-08-31T13:56:55.918Z,23.87
2022-08-31T13:59:36.918Z,23.77
2022-08-31T14:02:28.622Z,23.67
2022-08-31T14:05:08.108Z,23.76
2022-08-31T14:08:08.188Z,23.77
2022-08-31T14:10:38.152Z,23.50
2022-08-31T14:13:09.971Z,23.57
2022-08-31T14:15:41.001Z,23.57
2022-08-31T14:18:25.665Z,23.48
2022-08-31T14:21:22.704Z,23.34
2022-08-31T14:23:53.384Z,23.25
2022-08-31T14:26:26.324Z,23.27
2022-08-31T14:28:56.404Z,23.10
2022-08-31T14:31:27.064Z,22.99
2022-08-31T14:34:08.673Z,23.10
2022-08-31T14:36:50.244Z,23.13
2022-08-31T14:39:17.816Z,23.11
2022-08-31T14:41:45.788Z,23.11
2022-08-31T14:44:14.177Z,22.96
2022-08-31T14:46:43.610Z,22.74
2022-08-31T14:49:11.208Z,22.81
2022-08-31T14:51:41.780Z,22.74
2022-08-31T14:54:09.864Z,22.75
2022-08-31T14:56:45.303Z,22.63
2022-08-31T14:59:16.145Z,22.74
2022-08-31T15:01:45.464Z,22.67
2022-08-31T15:04:14.802Z,22.74
2022-08-31T15:06:49.668Z,22.90
2022-08-31T15:09:17.381Z,22.86
2022-08-31T15:11:45.845Z,22.91
2022-08-31T15:14:13.964Z,22.90
2022-08-31T15:16:42.940Z,22.77
2022-08-31T15:19:13.576Z,22.67
2022-08-31T15:21:52.739Z,22.67
2022-08-31T15:24:26.485Z,22.62
2022-08-31T15:26:58.513Z,22.58
2022-08-31T15:29:30.199Z,22.21
2022-08-31T15:31:59.717Z,22.13
2022-08-31T15:34:30.238Z,21.87
2022-08-31T15:37:02.192Z,21.59
2022-08-31T15:39:32.548Z,21.69
2022-08-31T15:42:01.228Z,21.53
2022-08-31T15:44:28.786Z,21.52
2022-08-31T15:47:14.077Z,21.78
2022-08-31T15:49:43.529Z,21.79
2022-08-31T15:52:12.974Z,21.76
2022-08-31T15:54:42.011Z,21.79
2022-08-31T15:57:11.158Z,21.76
2022-08-31T15:59:39.941Z,21.79
2022-08-31T16:02:08.509Z,21.72
2022-08-31T16:04:38.416Z,21.80
2022-08-31T16:07:07.454Z,21.70
2022-08-31T16:09:37.254Z,21.60
2022-08-31T16:12:05.845Z,21.38
2022-08-31T16:14:33.457Z,21.24
2022-08-31T16:17:01.056Z,21.05
2022-08-31T16:19:35.477Z,20.90
2022-08-31T16:22:05.913Z,20.70
2022-08-31T16:24:37.208Z,20.65
2022-08-31T16:27:08.424Z,20.47
2022-08-31T16:29:37.380Z,20.41
2022-08-31T16:32:06.614Z,20.27
2022-08-31T16:34:34.686Z,20.15
2022-08-31T16:37:07.115Z,20.15
2022-08-31T16:39:36.017Z,20.16
2022-08-31T16:42:04.134Z,20.28
2022-08-31T16:44:37.040Z,20.27
2022-08-31T16:47:06.628Z,20.30
2022-08-31T16:49:33.777Z,20.31
2022-08-31T16:52:03.291Z,20.27
2022-08-31T16:54:31.441Z,20.32
2022-08-31T16:56:59.570Z,20.32
2022-08-31T16:59:29.020Z,20.30
2022-08-31T17:01:59.508Z,20.28
2022-08-31T17:04:51.010Z,20.15
2022-08-31T17:07:17.303Z,20.11
2022-08-31T17:09:45.682Z,20.08
2022-08-31T17:12:16.996Z,20.03
2022-08-31T17:14:48.114Z,20.06
2022-08-31T17:17:18.955Z,20.05
2022-08-31T17:19:47.571Z,19.98
2022-08-31T17:22:22.729Z,19.92
2022-08-31T17:24:56.257Z,19.90
2022-08-31T17:27:25.502Z,19.89
2022-08-31T17:29:55.906Z,19.80
2022-08-31T17:32:27.241Z,19.69
2022-08-31T17:34:55.981Z,19.64
2022-08-31T17:37:27.030Z,19.59
2022-08-31T17:39:56.354Z,19.52
2022-08-31T17:42:26.716Z,19.41
2022-08-31T17:44:55.277Z,19.35
2022-08-31T17:47:26.588Z,19.27
2022-08-31T17:49:55.006Z,19.21
2022-08-31T17:52:23.720Z,19.16
2022-08-31T17:54:52.216Z,19.10
2022-08-31T17:57:24.892Z,19.02
2022-08-31T17:59:54.647Z,18.99
2022-08-31T18:02:31.085Z,18.94
2022-08-31T18:04:58.901Z,18.87
2022-08-31T18:07:26.669Z,18.81
2022-08-31T18:09:54.393Z,18.71
2022-08-31T18:12:22.779Z,18.63
2022-08-31T18:14:50.868Z,18.58
2022-08-31T18:17:21.492Z,18.54
2022-08-31T18:19:50.681Z,18.48
2022-08-31T18:22:19.675Z,18.41
2022-08-31T18:24:47.283Z,18.32
2022-08-31T18:27:16.040Z,18.24
2022-08-31T18:29:45.041Z,18.17
2022-08-31T18:32:13.147Z,18.09
2022-08-31T18:34:44.092Z,18.05
2022-08-31T18:37:13.787Z,17.98
2022-08-31T18:39:57.145Z,17.91
2022-08-31T18:42:45.396Z,17.84
2022-08-31T18:45:19.799Z,17.78
2022-08-31T18:48:13.708Z,17.73
2022-08-31T18:50:38.455Z,17.62
2022-08-31T18:53:10.666Z,17.54
2022-08-31T18:55:42.631Z,17.45
2022-08-31T18:58:10.447Z,17.37
2022-08-31T19:00:40.116Z,17.28
2022-08-31T19:03:08.319Z,17.20
2022-08-31T19:05:39.564Z,17.14
2022-08-31T19:08:08.588Z,17.04
2022-08-31T19:10:36.933Z,16.98
2022-08-31T19:13:07.814Z,16.91
2022-08-31T19:15:39.708Z,16.82
2022-08-31T19:18:07.489Z,16.73
2022-08-31T19:20:36.157Z,16.64
2022-08-31T19:23:03.814Z,16.55
2022-08-31T19:25:32.797Z,16.52
2022-08-31T19:28:01.795Z,16.48
2022-08-31T19:30:30.139Z,16.43
2022-08-31T19:32:57.976Z,16.43
2022-08-31T19:35:27.429Z,16.38
2022-08-31T19:37:56.203Z,16.36
2022-08-31T19:40:35.585Z,16.34
2022-08-31T19:45:54.574Z,16.26
2022-08-31T19:48:23.255Z,16.23
2022-08-31T19:50:51.596Z,16.19
2022-08-31T19:53:21.237Z,16.17
2022-08-31T19:55:50.870Z,16.16
2022-08-31T19:58:25.161Z,16.17
2022-08-31T20:01:00.593Z,16.15
2022-08-31T20:03:31.102Z,16.13
2022-08-31T20:05:59.794Z,16.15
2022-08-31T20:08:27.501Z,16.14
2022-08-31T20:10:55.460Z,16.13
2022-08-31T20:13:27.622Z,16.09
2022-08-31T20:15:56.889Z,16.02
2022-08-31T20:18:28.085Z,15.95
2022-08-31T20:20:56.631Z,15.86
2022-08-31T20:23:24.508Z,15.75
2022-08-31T20:25:53.115Z,15.68
2022-08-31T20:28:26.304Z,15.63
2022-08-31T20:30:59.969Z,15.58
2022-08-31T20:33:28.710Z,15.56
2022-08-31T20:35:56.261Z,15.52
2022-08-31T20:38:24.895Z,15.52
2022-08-31T20:40:52.770Z,15.52
2022-08-31T20:43:21.395Z,15.52
2022-08-31T20:45:49.336Z,15.54
2022-08-31T20:48:35.937Z,15.55
2022-08-31T20:51:16.007Z,15.55
2022-08-31T20:53:44.394Z,15.55
2022-08-31T20:56:17.004Z,15.53
2022-08-31T20:58:45.704Z,15.52
2022-08-31T21:01:15.979Z,15.46
2022-08-31T21:03:45.021Z,15.43
2022-08-31T21:06:13.007Z,15.38
2022-08-31T21:08:42.416Z,15.34
2022-08-31T21:11:12.276Z,15.32
2022-08-31T21:13:39.904Z,15.28
2022-08-31T21:16:07.774Z,15.25
2022-08-31T21:18:36.919Z,15.21
2022-08-31T21:21:08.147Z,15.17
2022-08-31T21:23:37.127Z,15.15
2022-08-31T21:26:07.488Z,15.10
2022-08-31T21:28:38.219Z,15.08
2022-08-31T21:31:15.412Z,15.05
2022-08-31T21:33:44.528Z,15.02
2022-08-31T21:36:15.966Z,15.00
2022-08-31T21:38:47.341Z,14.98
2022-08-31T21:41:17.738Z,14.93
2022-08-31T21:43:45.481Z,14.91
2022-08-31T21:46:16.076Z,14.87
2022-08-31T21:48:45.690Z,14.82
2022-08-31T21:51:17.782Z,14.78
2022-08-31T21:53:47.739Z,14.73
2022-08-31T21:56:15.806Z,14.66
2022-08-31T21:58:43.945Z,14.60
2022-08-31T22:01:18.144Z,14.51
2022-08-31T22:03:46.299Z,14.43
2022-08-31T22:06:22.047Z,14.36
2022-08-31T22:09:00.059Z,14.26
2022-08-31T22:11:30.081Z,14.18
2022-08-31T22:13:59.485Z,14.10
2022-08-31T22:16:27.929Z,14.01
2022-08-31T22:19:01.385Z,13.97
2022-08-31T22:21:34.439Z,13.93
2022-08-31T22:24:05.526Z,13.88
2022-08-31T22:26:36.900Z,13.86
2022-08-31T22:29:06.279Z,13.82
2022-08-31T22:31:37.065Z,13.78
2022-08-31T22:34:05.693Z,13.81
2022-08-31T22:36:35.442Z,13.82
2022-08-31T22:39:04.258Z,13.85
2022-08-31T22:41:32.875Z,13.87
2022-08-31T22:44:01.059Z,13.88
2022-08-31T22:46:28.802Z,13.90
2022-08-31T22:48:58.029Z,13.91
2022-08-31T22:51:26.075Z,13.92
2022-08-31T22:53:55.025Z,13.93
2022-08-31T22:56:25.869Z,13.94
2022-08-31T22:58:53.936Z,13.96
2022-08-31T23:01:23.563Z,13.97
2022-08-31T23:03:51.591Z,13.95
2022-08-31T23:06:20.552Z,13.93
2022-08-31T23:08:49.778Z,13.85
2022-08-31T23:11:20.313Z,13.79
2022-08-31T23:13:57.129Z,13.74
2022-08-31T23:16:27.168Z,13.72
2022-08-31T23:18:57.552Z,13.70
2022-08-31T23:21:25.788Z,13.71
2022-08-31T23:23:53.955Z,13.75
2022-08-31T23:26:27.496Z,13.78
2022-08-31T23:28:56.365Z,13.80
2022-08-31T23:31:24.582Z,13.82
2022-08-31T23:33:53.366Z,13.81
2022-08-31T23:36:25.827Z,13.82
2022-08-31T23:38:54.737Z,13.82
2022-08-31T23:41:25.934Z,13.86
2022-08-31T23:43:54.588Z,13.89
2022-08-31T23:46:23.762Z,13.95
2022-08-31T23:48:52.103Z,13.98
2022-08-31T23:51:20.706Z,14.03
2022-08-31T23:53:55.229Z,14.03
2022-08-31T23:56:32.820Z,14.06
2022-08-31T23:59:01.011Z,14.08
